Terminal Aerodrome Forecast
Issued by NWS Sioux Falls, SD

Home | Current Version | Previous Version | Graphics & Text | Print | Product List | Glossary Off
Versions: 1 2 3 4 5 6 7 8 9 10 11 12 13 14 15

597
FTUS43 KFSD 141720
TAFHON
TAF
KHON 141720Z 1418/1518 35007KT P6SM BKN020
     FM142000 03006KT P6SM SCT045
     FM150000 06006KT P6SM SCT200
     FM150900 12005KT P6SM BKN200
     FM151200 13005KT P6SM BKN015
     FM151400 13007KT P6SM BKN035=

USA.gov is the U.S. government's official web portal to all federal, state and local government web resources and services.